createdAt,value
2022-11-21T00:00:04.671Z,49.77
2022-11-21T00:02:31.109Z,49.86
2022-11-21T00:04:57.939Z,49.69
2022-11-21T00:07:24.338Z,49.81
2022-11-21T00:09:50.663Z,49.81
2022-11-21T00:12:16.993Z,49.77
2022-11-21T00:14:43.308Z,49.80
2022-11-21T00:17:09.836Z,49.83
2022-11-21T00:19:36.163Z,49.78
2022-11-21T00:22:02.507Z,49.92
2022-11-21T00:24:29.164Z,49.88
2022-11-21T00:26:55.697Z,49.74
2022-11-21T00:29:22.008Z,49.71
2022-11-21T00:31:48.330Z,49.66
2022-11-21T00:34:16.489Z,49.69
2022-11-21T00:36:42.817Z,49.94
2022-11-21T00:39:09.138Z,49.90
2022-11-21T00:41:35.451Z,49.77
2022-11-21T00:44:01.765Z,49.76
2022-11-21T00:46:28.090Z,49.72
2022-11-21T00:48:54.397Z,49.86
2022-11-21T00:51:20.723Z,49.70
2022-11-21T00:53:47.592Z,49.67
2022-11-21T00:56:13.912Z,49.68
2022-11-21T00:58:40.219Z,49.71
2022-11-21T01:01:07.327Z,49.61
2022-11-21T01:03:34.088Z,49.47
2022-11-21T01:06:01.174Z,49.73
2022-11-21T01:08:27.493Z,49.66
2022-11-21T01:10:53.843Z,49.86
2022-11-21T01:13:20.165Z,49.82
2022-11-21T01:15:46.494Z,49.80
2022-11-21T01:18:12.821Z,49.65
2022-11-21T01:20:40.138Z,49.61
2022-11-21T01:23:06.452Z,49.79
2022-11-21T01:25:35.788Z,49.79
2022-11-21T01:28:02.123Z,49.70
2022-11-21T01:30:28.468Z,49.75
2022-11-21T01:32:54.784Z,49.85
2022-11-21T01:35:21.105Z,49.88
2022-11-21T01:37:48.317Z,49.96
2022-11-21T01:40:14.891Z,49.97
2022-11-21T01:42:49.053Z,49.83
2022-11-21T01:45:34.279Z,49.85
2022-11-21T01:48:00.620Z,49.57
2022-11-21T01:50:26.937Z,49.81
2022-11-21T01:52:53.269Z,49.59
2022-11-21T01:55:19.574Z,49.81
2022-11-21T01:57:45.890Z,49.79
2022-11-21T02:00:34.946Z,49.74
2022-11-21T02:03:02.317Z,49.85
2022-11-21T02:05:29.358Z,49.68
2022-11-21T02:07:56.955Z,49.72
2022-11-21T02:10:23.293Z,49.68
2022-11-21T02:12:53.114Z,49.58
2022-11-21T02:15:19.632Z,49.78
2022-11-21T02:17:45.942Z,49.93
2022-11-21T02:20:12.728Z,49.60
2022-11-21T02:22:45.456Z,49.58
2022-11-21T02:25:15.371Z,49.63
2022-11-21T02:27:41.680Z,49.75
2022-11-21T02:30:08.464Z,49.64
2022-11-21T02:32:36.230Z,49.52
2022-11-21T02:35:03.537Z,49.89
2022-11-21T02:37:29.912Z,49.73
2022-11-21T02:39:56.666Z,49.62
2022-11-21T02:42:30.653Z,49.75
2022-11-21T02:45:05.432Z,49.79
2022-11-21T02:47:31.784Z,49.78
2022-11-21T02:50:00.301Z,49.72
2022-11-21T02:52:26.605Z,49.80
2022-11-21T02:54:52.913Z,49.73
2022-11-21T02:57:19.237Z,49.78
2022-11-21T02:59:45.564Z,49.60
2022-11-21T03:02:11.889Z,49.64
2022-11-21T03:04:38.207Z,49.82
2022-11-21T03:07:04.544Z,49.50
2022-11-21T03:09:30.875Z,49.66
2022-11-21T03:11:57.193Z,49.71
2022-11-21T03:14:23.508Z,49.74
2022-11-21T03:16:49.843Z,49.55
2022-11-21T03:19:16.225Z,49.67
2022-11-21T03:21:42.554Z,49.79
2022-11-21T03:24:14.962Z,49.84
2022-11-21T03:26:41.284Z,49.85
2022-11-21T03:29:07.669Z,49.75
2022-11-21T03:31:34.002Z,49.80
2022-11-21T03:34:00.357Z,49.54
2022-11-21T03:36:26.676Z,49.79
2022-11-21T03:38:54.558Z,49.77
2022-11-21T03:41:29.686Z,49.65
2022-11-21T03:43:59.553Z,49.50
2022-11-21T03:46:25.993Z,49.72
2022-11-21T03:48:52.307Z,49.75
2022-11-21T03:51:18.798Z,49.80
2022-11-21T03:53:45.121Z,49.76
2022-11-21T03:56:11.484Z,49.76
2022-11-21T03:58:37.798Z,49.73
2022-11-21T04:01:04.219Z,49.65
2022-11-21T04:03:30.575Z,49.69
2022-11-21T04:05:56.905Z,49.63
2022-11-21T04:08:23.213Z,49.65
2022-11-21T04:10:49.752Z,49.56
2022-11-21T04:13:16.245Z,49.60
2022-11-21T04:15:42.601Z,49.66
2022-11-21T04:18:08.922Z,49.63
2022-11-21T04:20:35.285Z,49.59
2022-11-21T04:23:01.596Z,49.70
2022-11-21T04:25:27.914Z,49.50
2022-11-21T04:28:00.537Z,49.57
2022-11-21T04:30:26.865Z,49.65
2022-11-21T04:32:53.414Z,49.40
2022-11-21T04:35:19.723Z,49.62
2022-11-21T04:37:46.069Z,49.57
2022-11-21T04:40:12.462Z,49.56
2022-11-21T04:42:41.913Z,49.53
2022-11-21T04:45:08.356Z,49.53
2022-11-21T04:47:38.071Z,49.44
2022-11-21T04:50:04.457Z,49.35
2022-11-21T04:52:30.775Z,49.40
2022-11-21T04:54:57.099Z,49.56
2022-11-21T04:57:23.423Z,49.59
2022-11-21T04:59:49.753Z,49.33
2022-11-21T05:02:16.070Z,49.43
2022-11-21T05:04:42.378Z,49.46
2022-11-21T05:07:08.748Z,49.53
2022-11-21T05:09:35.124Z,49.51
2022-11-21T05:12:20.184Z,49.31
2022-11-21T05:14:46.509Z,49.39
2022-11-21T05:17:12.853Z,49.50
2022-11-21T05:19:39.174Z,49.55
2022-11-21T05:22:05.489Z,49.41
2022-11-21T05:24:31.796Z,49.51
2022-11-21T05:26:58.116Z,49.51
2022-11-21T05:29:28.088Z,49.51
2022-11-21T05:31:54.694Z,49.36
2022-11-21T05:34:21.010Z,49.26
2022-11-21T05:36:47.335Z,49.31
2022-11-21T05:39:14.513Z,49.36
2022-11-21T05:41:40.846Z,49.22
2022-11-21T05:44:07.192Z,49.54
2022-11-21T05:46:33.507Z,49.44
2022-11-21T05:48:59.825Z,49.44
2022-11-21T05:51:26.372Z,49.58
2022-11-21T05:53:52.690Z,49.61
2022-11-21T05:56:19.083Z,49.72
2022-11-21T05:58:45.442Z,49.07
2022-11-21T06:01:12.022Z,49.15
2022-11-21T06:03:39.085Z,49.99
2022-11-21T06:06:08.390Z,50.27
2022-11-21T06:08:35.558Z,50.08
2022-11-21T06:11:01.985Z,50.48
2022-11-21T06:13:28.381Z,50.50
2022-11-21T06:16:01.242Z,51.60
2022-11-21T06:18:27.921Z,51.22
2022-11-21T06:20:54.449Z,50.94
2022-11-21T06:23:20.766Z,51.65
2022-11-21T06:25:47.097Z,51.79
2022-11-21T06:28:13.458Z,51.32
2022-11-21T06:30:39.783Z,51.43
2022-11-21T06:33:06.221Z,51.51
2022-11-21T06:35:32.529Z,51.65
2022-11-21T06:37:58.849Z,52.22
2022-11-21T06:40:25.509Z,52.33
2022-11-21T06:42:51.897Z,52.08
2022-11-21T06:45:18.228Z,51.96
2022-11-21T06:47:44.568Z,51.34
2022-11-21T06:50:10.872Z,51.90
2022-11-21T06:52:37.189Z,49.63
2022-11-21T06:55:03.521Z,50.37
2022-11-21T06:57:29.827Z,47.07
2022-11-21T06:59:56.142Z,50.05
2022-11-21T07:02:23.290Z,45.88
2022-11-21T07:04:49.612Z,45.92
2022-11-21T07:07:15.979Z,45.71
2022-11-21T07:09:44.676Z,46.39
2022-11-21T07:12:29.492Z,46.41
2022-11-21T07:14:55.813Z,47.34
2022-11-21T07:17:22.154Z,47.70
2022-11-21T07:19:48.544Z,47.97
2022-11-21T07:22:14.876Z,48.07
2022-11-21T07:24:41.176Z,47.65
2022-11-21T07:27:07.495Z,48.35
2022-11-21T07:29:33.830Z,48.01
2022-11-21T07:32:09.172Z,48.12
2022-11-21T07:34:35.517Z,47.74
2022-11-21T07:37:05.184Z,48.27
2022-11-21T07:39:31.783Z,48.28
2022-11-21T07:41:58.128Z,48.10
2022-11-21T07:44:24.453Z,48.35
2022-11-21T07:46:53.809Z,48.10
2022-11-21T07:49:20.118Z,47.82
2022-11-21T07:51:46.476Z,47.76
2022-11-21T07:54:12.781Z,47.63
2022-11-21T07:56:39.143Z,47.72
2022-11-21T07:59:05.474Z,47.58
2022-11-21T08:01:31.825Z,47.59
2022-11-21T08:03:58.184Z,47.34
2022-11-21T08:06:24.515Z,47.82
2022-11-21T08:08:54.115Z,47.33
2022-11-21T08:11:20.496Z,47.00
2022-11-21T08:13:46.809Z,45.94
2022-11-21T08:16:13.129Z,45.29
2022-11-21T08:18:39.461Z,44.31
2022-11-21T08:21:05.789Z,43.02
2022-11-21T08:23:32.153Z,42.08
2022-11-21T08:25:58.858Z,41.88
2022-11-21T08:28:25.182Z,41.84
2022-11-21T08:30:51.543Z,42.31
2022-11-21T08:33:17.864Z,42.82
2022-11-21T08:35:44.223Z,42.52
2022-11-21T08:38:10.547Z,42.72
2022-11-21T08:40:36.887Z,43.38
2022-11-21T08:43:06.833Z,43.45
2022-11-21T08:45:33.902Z,43.61
2022-11-21T08:48:00.404Z,43.59
2022-11-21T08:50:27.957Z,42.97
2022-11-21T08:52:59.061Z,42.74
2022-11-21T08:55:25.369Z,42.78
2022-11-21T08:57:51.693Z,42.37
2022-11-21T09:00:18.024Z,43.36
2022-11-21T09:02:44.759Z,43.91
2022-11-21T09:05:11.154Z,43.51
2022-11-21T09:07:37.518Z,43.87
2022-11-21T09:10:03.953Z,44.15
2022-11-21T09:12:30.796Z,44.65
2022-11-21T09:15:15.721Z,44.45
2022-11-21T09:18:00.506Z,44.75
2022-11-21T09:20:26.861Z,44.93
2022-11-21T09:22:53.258Z,44.99
2022-11-21T09:25:19.581Z,45.26
2022-11-21T09:27:47.032Z,45.32
2022-11-21T09:30:13.552Z,45.35
2022-11-21T09:32:40.275Z,45.32
2022-11-21T09:35:06.699Z,45.49
2022-11-21T09:37:39.133Z,45.48
2022-11-21T09:40:08.405Z,45.45
2022-11-21T09:42:43.877Z,45.66
2022-11-21T09:45:11.800Z,45.75
2022-11-21T09:47:38.301Z,45.83
2022-11-21T09:50:06.097Z,45.66
2022-11-21T09:52:39.749Z,45.52
2022-11-21T09:55:24.453Z,45.79
2022-11-21T09:57:51.087Z,45.53
2022-11-21T10:00:21.293Z,44.80
2022-11-21T10:02:47.647Z,43.36
2022-11-21T10:05:14.085Z,42.50
2022-11-21T10:07:40.514Z,42.30
2022-11-21T10:10:18.064Z,42.70
2022-11-21T10:12:48.356Z,43.37
2022-11-21T10:15:14.597Z,43.80
2022-11-21T10:17:40.887Z,44.13
2022-11-21T10:20:10.885Z,43.76
2022-11-21T10:22:41.105Z,43.67
2022-11-21T10:25:14.192Z,43.88
2022-11-21T10:27:43.236Z,44.32
2022-11-21T10:30:19.364Z,41.95
2022-11-21T10:32:49.217Z,40.23
2022-11-21T10:35:25.758Z,41.89
2022-11-21T10:37:52.582Z,42.79
2022-11-21T10:40:21.608Z,43.20
2022-11-21T10:42:52.773Z,43.90
2022-11-21T10:45:19.836Z,44.53
2022-11-21T10:47:47.107Z,44.38
2022-11-21T10:50:31.793Z,44.70
2022-11-21T10:53:36.374Z,44.52
2022-11-21T10:56:04.432Z,45.30
2022-11-21T10:58:40.158Z,45.07
2022-11-21T11:01:06.556Z,45.13
2022-11-21T11:03:32.950Z,45.10
2022-11-21T11:05:59.255Z,45.10
2022-11-21T11:08:27.518Z,44.87
2022-11-21T11:11:02.828Z,45.04
2022-11-21T11:13:46.454Z,45.06
2022-11-21T11:16:15.196Z,45.04
2022-11-21T11:18:47.166Z,45.52
2022-11-21T11:21:17.880Z,45.40
2022-11-21T11:23:44.357Z,45.83
2022-11-21T11:26:19.805Z,45.75
2022-11-21T11:28:46.149Z,45.84
2022-11-21T11:31:12.482Z,45.77
2022-11-21T11:33:39.601Z,45.91
2022-11-21T11:36:10.038Z,45.91
2022-11-21T11:38:36.393Z,46.17
2022-11-21T11:41:04.653Z,46.26
2022-11-21T11:43:49.746Z,46.18
2022-11-21T11:46:51.761Z,46.50
2022-11-21T11:49:54.585Z,46.47
2022-11-21T11:52:20.900Z,46.46
2022-11-21T11:54:51.169Z,46.65
2022-11-21T11:57:17.488Z,46.02
2022-11-21T11:59:47.611Z,46.20
2022-11-21T12:02:16.967Z,46.21
2022-11-21T12:04:54.052Z,46.35
2022-11-21T12:10:06.575Z,45.92
2022-11-21T12:12:36.174Z,46.15
2022-11-21T12:15:21.383Z,46.26
2022-11-21T12:18:06.048Z,46.42
2022-11-21T12:20:51.063Z,45.93
2022-11-21T12:23:18.052Z,46.26
2022-11-21T12:25:53.337Z,46.24
2022-11-21T12:28:23.854Z,46.45
2022-11-21T12:30:53.377Z,46.78
2022-11-21T12:33:21.100Z,46.75
2022-11-21T12:36:20.348Z,46.94
2022-11-21T12:38:47.054Z,46.72
2022-11-21T12:41:46.861Z,45.72
2022-11-21T12:44:23.852Z,45.52
2022-11-21T12:47:01.456Z,45.86
2022-11-21T12:49:51.998Z,46.12
2022-11-21T12:52:41.006Z,46.33
2022-11-21T12:55:09.719Z,46.36
2022-11-21T12:57:48.652Z,46.29
2022-11-21T13:00:15.732Z,46.24
2022-11-21T13:03:00.893Z,46.02
2022-11-21T13:05:27.855Z,46.08
2022-11-21T13:07:55.168Z,46.09
2022-11-21T13:10:21.481Z,46.43
2022-11-21T13:12:56.550Z,46.74
2022-11-21T13:15:31.812Z,46.97
2022-11-21T13:18:03.410Z,46.83
2022-11-21T13:20:38.767Z,46.70
2022-11-21T13:23:07.004Z,46.60
2022-11-21T13:25:33.735Z,46.82
2022-11-21T13:28:18.668Z,46.48
2022-11-21T13:30:48.459Z,46.61
2022-11-21T13:33:33.685Z,46.60
2022-11-21T13:36:06.665Z,46.62
2022-11-21T13:38:53.660Z,46.66
2022-11-21T13:41:54.066Z,46.66
2022-11-21T13:44:32.880Z,46.54
2022-11-21T13:46:59.735Z,46.73
2022-11-21T13:49:47.111Z,46.36
2022-11-21T13:52:19.636Z,46.67
2022-11-21T13:54:47.188Z,47.02
2022-11-21T13:57:16.397Z,46.89
2022-11-21T13:59:52.389Z,46.42
2022-11-21T14:02:18.628Z,47.06
2022-11-21T14:04:54.049Z,46.84
2022-11-21T14:07:30.855Z,47.28
2022-11-21T14:09:57.540Z,47.32
2022-11-21T14:12:34.388Z,47.24
2022-11-21T14:15:01.597Z,47.64
2022-11-21T14:17:48.807Z,47.51
2022-11-21T14:20:20.008Z,47.38
2022-11-21T14:22:47.606Z,47.50
2022-11-21T14:25:15.679Z,47.47
2022-11-21T14:27:45.293Z,47.72
2022-11-21T14:30:30.648Z,47.85
2022-11-21T14:32:57.004Z,47.88
2022-11-21T14:35:23.505Z,47.84
2022-11-21T14:37:49.863Z,48.00
2022-11-21T14:40:22.607Z,47.71
2022-11-21T14:42:48.955Z,47.23
2022-11-21T14:45:17.103Z,47.59
2022-11-21T14:47:49.839Z,47.24
2022-11-21T14:50:25.952Z,47.42
2022-11-21T14:52:57.303Z,47.49
2022-11-21T14:55:31.451Z,47.44
2022-11-21T14:57:58.700Z,47.57
2022-11-21T15:03:19.331Z,47.71
2022-11-21T15:06:04.726Z,47.40
2022-11-21T15:09:03.254Z,47.16
2022-11-21T15:11:19.099Z,47.83
2022-11-21T15:14:12.594Z,47.26
2022-11-21T15:16:32.395Z,47.63
2022-11-21T15:18:58.727Z,47.93
2022-11-21T15:21:25.095Z,47.54
2022-11-21T15:23:51.574Z,47.88
2022-11-21T15:26:33.284Z,48.00
2022-11-21T15:28:59.945Z,47.80
2022-11-21T15:31:26.286Z,48.43
2022-11-21T15:34:34.852Z,48.42
2022-11-21T15:37:12.821Z,48.08
2022-11-21T15:39:42.541Z,48.64
2022-11-21T15:42:27.784Z,48.74
2022-11-21T15:44:58.333Z,48.76
2022-11-21T15:47:24.711Z,48.47
2022-11-21T15:49:51.051Z,48.51
2022-11-21T15:52:17.368Z,48.37
2022-11-21T15:54:43.701Z,48.56
2022-11-21T15:57:10.053Z,48.54
2022-11-21T15:59:36.377Z,48.33
2022-11-21T16:02:02.701Z,48.66
2022-11-21T16:04:29.041Z,48.56
2022-11-21T16:06:55.349Z,48.36
2022-11-21T16:09:21.687Z,48.61
2022-11-21T16:11:47.997Z,48.30
2022-11-21T16:14:14.830Z,48.62
2022-11-21T16:16:43.385Z,48.46
2022-11-21T16:19:10.567Z,48.45
2022-11-21T16:21:36.943Z,48.50
2022-11-21T16:24:03.269Z,48.41
2022-11-21T16:26:29.653Z,48.53
2022-11-21T16:28:56.085Z,48.62
2022-11-21T16:31:26.669Z,48.69
2022-11-21T16:33:52.983Z,48.97
2022-11-21T16:36:22.598Z,48.85
2022-11-21T16:38:51.832Z,48.63
2022-11-21T16:41:21.091Z,48.68
2022-11-21T16:43:48.038Z,48.89
2022-11-21T16:46:14.396Z,48.95
2022-11-21T16:48:41.281Z,48.86
2022-11-21T16:51:14.710Z,48.53
2022-11-21T16:53:41.093Z,48.70
2022-11-21T16:56:07.477Z,48.52
2022-11-21T16:58:33.887Z,48.57
2022-11-21T17:01:07.243Z,48.67
2022-11-21T17:03:33.596Z,48.98
2022-11-21T17:06:00.130Z,49.22
2022-11-21T17:08:29.834Z,48.80
2022-11-21T17:10:56.163Z,48.59
2022-11-21T17:13:22.475Z,48.78
2022-11-21T17:15:48.805Z,48.45
2022-11-21T17:18:15.267Z,48.61
2022-11-21T17:20:41.615Z,48.55
2022-11-21T17:23:07.957Z,48.25
2022-11-21T17:25:34.332Z,48.54
2022-11-21T17:28:00.673Z,48.68
2022-11-21T17:30:27.130Z,48.76
2022-11-21T17:32:53.518Z,48.74
2022-11-21T17:35:19.858Z,48.37
2022-11-21T17:37:47.065Z,48.66
2022-11-21T17:40:13.689Z,48.59
2022-11-21T17:42:43.177Z,48.40
2022-11-21T17:45:09.657Z,48.17
2022-11-21T17:47:35.993Z,48.64
2022-11-21T17:50:05.991Z,48.29
2022-11-21T17:52:32.780Z,48.43
2022-11-21T17:54:59.116Z,48.58
2022-11-21T17:57:25.879Z,48.70
2022-11-21T17:59:52.263Z,48.76
2022-11-21T18:02:20.889Z,49.13
2022-11-21T18:04:47.419Z,48.92
2022-11-21T18:07:13.802Z,48.27
2022-11-21T18:09:40.152Z,48.65
2022-11-21T18:12:06.468Z,48.21
2022-11-21T18:14:32.805Z,48.75
2022-11-21T18:16:59.149Z,49.04
2022-11-21T18:19:25.465Z,48.65
2022-11-21T18:21:51.913Z,48.88
2022-11-21T18:24:18.978Z,49.21
2022-11-21T18:26:45.354Z,49.37
2022-11-21T18:31:57.979Z,45.59
2022-11-21T18:34:24.302Z,47.04
2022-11-21T18:36:50.621Z,48.22
2022-11-21T18:39:16.945Z,48.67
2022-11-21T18:41:43.392Z,49.15
2022-11-21T18:44:09.905Z,49.43
2022-11-21T18:46:36.379Z,49.63
2022-11-21T18:49:06.047Z,49.79
2022-11-21T18:51:33.494Z,49.59
2022-11-21T18:54:00.618Z,49.64
2022-11-21T18:56:27.105Z,49.83
2022-11-21T18:58:58.349Z,49.69
2022-11-21T19:01:25.919Z,50.04
2022-11-21T19:03:52.660Z,49.83
2022-11-21T19:06:20.472Z,50.30
2022-11-21T19:08:47.084Z,50.21
2022-11-21T19:11:13.965Z,50.12
2022-11-21T19:13:40.269Z,50.12
2022-11-21T19:16:07.388Z,50.40
2022-11-21T19:18:37.821Z,50.10
2022-11-21T19:21:07.761Z,50.13
2022-11-21T19:23:34.269Z,50.08
2022-11-21T19:26:01.150Z,50.06
2022-11-21T19:28:28.472Z,50.07
2022-11-21T19:30:54.820Z,49.43
2022-11-21T19:33:21.129Z,49.64
2022-11-21T19:35:47.481Z,49.44
2022-11-21T19:38:13.799Z,49.23
2022-11-21T19:40:58.903Z,49.64
2022-11-21T19:43:25.225Z,49.47
2022-11-21T19:45:57.738Z,49.63
2022-11-21T19:48:24.468Z,49.44
2022-11-21T19:50:58.651Z,49.62
2022-11-21T19:53:25.276Z,49.66
2022-11-21T19:55:51.677Z,49.47
2022-11-21T19:58:18.064Z,49.60
2022-11-21T20:00:44.436Z,49.50
2022-11-21T20:03:10.747Z,49.56
2022-11-21T20:05:37.272Z,49.94
2022-11-21T20:08:09.860Z,49.86
2022-11-21T20:10:40.677Z,49.72
2022-11-21T20:13:07.002Z,49.75
2022-11-21T20:15:36.975Z,49.43
2022-11-21T20:18:05.177Z,49.57
2022-11-21T20:20:31.509Z,50.10
2022-11-21T20:22:57.860Z,50.01
2022-11-21T20:25:24.175Z,50.14
2022-11-21T20:27:50.529Z,50.09
2022-11-21T20:30:17.025Z,49.50
2022-11-21T20:32:43.347Z,49.26
2022-11-21T20:35:09.666Z,49.59
2022-11-21T20:37:36.000Z,49.60
2022-11-21T20:40:02.341Z,49.31
2022-11-21T20:42:28.661Z,49.65
2022-11-21T20:45:54.338Z,49.53
2022-11-21T20:47:41.270Z,50.72
2022-11-21T20:50:07.601Z,50.17
2022-11-21T20:55:20.227Z,49.66
2022-11-21T20:57:46.546Z,49.19
2022-11-21T21:00:13.059Z,49.26
2022-11-21T21:02:39.388Z,49.57
2022-11-21T21:05:05.883Z,49.07
2022-11-21T21:07:32.278Z,49.14
2022-11-21T21:09:59.425Z,49.26
2022-11-21T21:12:27.410Z,49.24
2022-11-21T21:14:53.728Z,49.33
2022-11-21T21:17:20.055Z,49.30
2022-11-21T21:19:46.385Z,49.28
2022-11-21T21:22:12.742Z,49.13
2022-11-21T21:24:39.079Z,49.18
2022-11-21T21:27:05.405Z,48.86
2022-11-21T21:29:31.988Z,49.04
2022-11-21T21:31:58.602Z,49.28
2022-11-21T21:34:24.943Z,49.67
2022-11-21T21:36:51.418Z,49.42
2022-11-21T21:39:17.856Z,49.35
2022-11-21T21:41:46.051Z,48.87
2022-11-21T21:44:12.905Z,49.30
2022-11-21T21:46:39.221Z,49.17
2022-11-21T21:49:05.546Z,49.15
2022-11-21T21:51:32.194Z,49.12
2022-11-21T21:53:58.563Z,49.17
2022-11-21T21:56:25.209Z,49.33
2022-11-21T21:58:51.522Z,49.30
2022-11-21T22:01:18.536Z,49.16
2022-11-21T22:03:45.009Z,49.16
2022-11-21T22:06:12.181Z,49.34
2022-11-21T22:08:38.600Z,49.21
2022-11-21T22:11:05.581Z,49.19
2022-11-21T22:13:32.050Z,49.01
2022-11-21T22:15:58.488Z,49.11
2022-11-21T22:18:24.800Z,49.42
2022-11-21T22:20:51.151Z,49.22
2022-11-21T22:23:17.466Z,49.13
2022-11-21T22:25:43.797Z,49.23
2022-11-21T22:28:10.101Z,49.19
2022-11-21T22:30:36.412Z,49.12
2022-11-21T22:33:02.723Z,49.33
2022-11-21T22:35:31.189Z,49.25
2022-11-21T22:37:57.509Z,49.06
2022-11-21T22:40:23.822Z,48.96
2022-11-21T22:42:50.165Z,48.90
2022-11-21T22:45:16.482Z,48.90
2022-11-21T22:47:47.757Z,48.96
2022-11-21T22:50:15.406Z,48.97
2022-11-21T22:52:41.781Z,49.00
2022-11-21T22:55:08.315Z,48.76
2022-11-21T22:57:34.650Z,48.87
2022-11-21T23:00:01.260Z,48.65
2022-11-21T23:02:27.608Z,47.25
2022-11-21T23:04:53.932Z,48.23
2022-11-21T23:07:20.469Z,47.79
2022-11-21T23:09:46.873Z,48.10
2022-11-21T23:12:13.217Z,48.19
2022-11-21T23:14:39.546Z,48.22
2022-11-21T23:17:05.879Z,48.34
2022-11-21T23:19:32.371Z,48.36
2022-11-21T23:21:58.781Z,48.31
2022-11-21T23:24:25.093Z,48.58
2022-11-21T23:26:51.404Z,48.92
2022-11-21T23:29:17.809Z,48.91
2022-11-21T23:31:44.122Z,49.29
2022-11-21T23:34:11.191Z,49.39
2022-11-21T23:36:37.524Z,49.76
2022-11-21T23:39:04.000Z,49.66
2022-11-21T23:41:30.317Z,50.26
2022-11-21T23:43:56.625Z,49.94
2022-11-21T23:46:22.948Z,49.72
2022-11-21T23:48:49.314Z,49.90
2022-11-21T23:51:15.669Z,49.69
2022-11-21T23:53:42.017Z,49.46
2022-11-21T23:56:08.351Z,49.74
2022-11-21T23:58:34.676Z,49.45
